createdAt,value
2022-10-22T00:01:46.126Z,3.63
2022-10-22T00:04:20.276Z,3.58
2022-10-22T00:09:29.404Z,3.70
2022-10-22T00:12:03.497Z,3.40
2022-10-22T00:14:37.435Z,3.58
2022-10-22T00:17:11.901Z,3.70
2022-10-22T00:19:46.269Z,4.03
2022-10-22T00:22:21.681Z,3.53
2022-10-22T00:24:55.686Z,3.65
2022-10-22T00:27:29.908Z,4.07
2022-10-22T00:30:04.746Z,3.70
2022-10-22T00:32:39.155Z,3.47
2022-10-22T00:35:13.277Z,3.58
2022-10-22T00:37:48.618Z,4.22
2022-10-22T00:40:22.625Z,3.28
2022-10-22T00:42:56.630Z,3.05
2022-10-22T00:45:30.936Z,3.60
2022-10-22T00:48:08.065Z,3.25
2022-10-22T00:50:46.070Z,3.05
2022-10-22T00:53:25.164Z,3.78
2022-10-22T00:55:59.397Z,3.75
2022-10-22T00:58:36.658Z,3.40
2022-10-22T01:01:14.846Z,3.38
2022-10-22T01:03:49.632Z,3.60
2022-10-22T01:06:27.522Z,4.10
2022-10-22T01:09:15.023Z,3.75
2022-10-22T01:12:00.395Z,3.90
2022-10-22T01:14:44.055Z,3.45
2022-10-22T01:17:25.612Z,4.22
2022-10-22T01:20:10.129Z,3.22
2022-10-22T01:22:47.812Z,3.45
2022-10-22T01:25:32.440Z,2.88
2022-10-22T01:28:18.817Z,3.50
2022-10-22T01:30:57.864Z,3.58
2022-10-22T01:33:34.200Z,3.10
2022-10-22T01:36:09.497Z,3.63
2022-10-22T01:38:44.182Z,3.75
2022-10-22T01:41:18.507Z,3.17
2022-10-22T01:43:52.408Z,3.15
2022-10-22T01:49:17.970Z,3.28
2022-10-22T01:52:02.921Z,3.25
2022-10-22T01:54:48.257Z,3.75
2022-10-22T01:57:32.805Z,2.80
2022-10-22T02:00:09.481Z,3.92
2022-10-22T02:02:50.311Z,3.28
2022-10-22T02:05:29.025Z,3.33
2022-10-22T02:08:06.537Z,2.85
2022-10-22T02:10:42.544Z,2.75
2022-10-22T02:13:20.062Z,2.90
2022-10-22T02:15:55.906Z,3.20
2022-10-22T02:18:36.411Z,3.15
2022-10-22T02:21:13.046Z,2.83
2022-10-22T02:23:47.453Z,3.15
2022-10-22T02:26:26.386Z,2.90
2022-10-22T02:29:04.823Z,3.15
2022-10-22T02:31:42.011Z,2.78
2022-10-22T02:34:20.795Z,2.90
2022-10-22T02:36:56.231Z,3.95
2022-10-22T02:39:33.652Z,2.83
2022-10-22T02:42:07.889Z,2.88
2022-10-22T02:44:41.696Z,3.67
2022-10-22T02:49:50.482Z,3.30
2022-10-22T02:52:24.291Z,2.72
2022-10-22T02:57:31.753Z,3.63
2022-10-22T03:00:06.701Z,3.42
2022-10-22T03:02:40.491Z,2.78
2022-10-22T03:07:49.457Z,3.30
2022-10-22T03:12:56.781Z,3.20
2022-10-22T03:18:04.222Z,2.93
2022-10-22T03:20:39.446Z,2.70
2022-10-22T03:23:16.333Z,3.55
2022-10-22T03:25:51.570Z,3.38
2022-10-22T03:28:27.037Z,3.05
2022-10-22T03:31:00.910Z,2.85
2022-10-22T03:36:10.801Z,3.00
2022-10-22T03:38:44.676Z,2.72
2022-10-22T03:41:18.687Z,3.28
2022-10-22T03:43:53.986Z,2.88
2022-10-22T03:46:27.790Z,2.80
2022-10-22T03:51:37.118Z,3.20
2022-10-22T03:54:10.924Z,3.25
2022-10-22T03:59:18.335Z,2.53
2022-10-22T04:04:25.747Z,3.20
2022-10-22T04:07:01.296Z,3.00
2022-10-22T04:09:35.766Z,3.40
2022-10-22T04:12:09.980Z,2.85
2022-10-22T04:14:43.812Z,3.35
2022-10-22T04:19:51.190Z,3.70
2022-10-22T04:24:59.974Z,3.42
2022-10-22T04:30:09.069Z,3.65
2022-10-22T04:32:42.913Z,2.72
2022-10-22T04:37:51.848Z,2.78
2022-10-22T04:40:25.708Z,2.90
2022-10-22T04:45:34.433Z,3.47
2022-10-22T04:48:08.714Z,2.85
2022-10-22T04:50:42.858Z,3.15
2022-10-22T04:55:51.672Z,2.97
2022-10-22T05:00:59.124Z,3.07
2022-10-22T05:03:33.016Z,3.78
2022-10-22T05:08:43.633Z,3.08
2022-10-22T05:11:18.932Z,3.50
2022-10-22T05:13:52.997Z,3.28
2022-10-22T05:16:27.872Z,3.35
2022-10-22T05:19:02.820Z,2.72
2022-10-22T05:21:36.827Z,3.40
2022-10-22T05:24:12.238Z,2.97
2022-10-22T05:26:46.138Z,3.60
2022-10-22T05:29:20.453Z,3.30
2022-10-22T05:31:54.516Z,3.08
2022-10-22T05:34:28.337Z,3.20
2022-10-22T05:39:40.090Z,3.40
2022-10-22T05:42:13.923Z,3.03
2022-10-22T05:47:21.224Z,3.67
2022-10-22T05:52:31.326Z,3.20
2022-10-22T05:57:41.586Z,3.00
2022-10-22T06:00:16.623Z,4.05
2022-10-22T06:02:51.932Z,3.17
2022-10-22T06:05:25.830Z,3.35
2022-10-22T06:07:59.690Z,3.72
2022-10-22T06:10:35.095Z,3.85
2022-10-22T06:13:08.978Z,3.95
2022-10-22T06:15:42.909Z,4.05
2022-10-22T06:18:16.780Z,3.60
2022-10-22T06:23:24.288Z,3.55
2022-10-22T06:26:00.242Z,3.95
2022-10-22T06:28:34.764Z,3.35
2022-10-22T06:31:08.837Z,3.47
2022-10-22T06:33:43.556Z,3.50
2022-10-22T06:36:19.579Z,5.22
2022-10-22T06:38:53.896Z,11.30
2022-10-22T06:41:29.801Z,10.02
2022-10-22T06:44:03.912Z,10.18
2022-10-22T06:46:40.071Z,10.23
2022-10-22T06:49:17.254Z,7.78
2022-10-22T06:51:52.538Z,7.57
2022-10-22T06:54:26.423Z,6.97
2022-10-22T06:57:01.731Z,7.57
2022-10-22T06:59:35.613Z,7.60
2022-10-22T07:02:10.581Z,5.97
2022-10-22T07:04:44.486Z,6.00
2022-10-22T07:07:18.617Z,7.53
2022-10-22T07:09:52.483Z,6.30
2022-10-22T07:12:28.130Z,4.93
2022-10-22T07:15:01.986Z,5.28
2022-10-22T07:20:10.613Z,5.77
2022-10-22T07:22:44.592Z,4.82
2022-10-22T07:27:53.571Z,5.03
2022-10-22T07:30:27.570Z,4.53
2022-10-22T07:33:01.468Z,4.47
2022-10-22T07:35:35.954Z,4.47
2022-10-22T07:38:10.754Z,5.03
2022-10-22T07:40:44.660Z,4.95
2022-10-22T07:43:20.161Z,4.40
2022-10-22T07:45:55.917Z,4.63
2022-10-22T07:48:30.097Z,4.32
2022-10-22T07:51:04.650Z,5.10
2022-10-22T07:53:38.636Z,5.38
2022-10-22T07:56:12.847Z,5.45
2022-10-22T07:58:48.226Z,5.05
2022-10-22T08:01:22.365Z,6.32
2022-10-22T08:03:56.385Z,5.90
2022-10-22T08:06:30.442Z,5.07
2022-10-22T08:09:04.507Z,6.45
2022-10-22T08:11:39.323Z,6.10
2022-10-22T08:14:15.005Z,6.30
2022-10-22T08:16:48.903Z,7.18
2022-10-22T08:19:22.772Z,6.78
2022-10-22T08:21:56.727Z,6.63
2022-10-22T08:24:31.017Z,7.82
2022-10-22T08:27:05.124Z,7.38
2022-10-22T08:29:40.877Z,7.25
2022-10-22T08:32:14.862Z,7.32
2022-10-22T08:34:48.715Z,6.90
2022-10-22T08:37:22.743Z,7.60
2022-10-22T08:39:57.114Z,127.65
2022-10-22T08:42:48.983Z,154.55
2022-10-22T08:45:29.277Z,151.52
2022-10-22T08:48:23.065Z,158.02
2022-10-22T08:50:59.900Z,167.23
2022-10-22T08:53:47.033Z,155.05
2022-10-22T08:56:24.981Z,135.10
2022-10-22T08:59:05.910Z,131.35
2022-10-22T09:01:47.362Z,121.47
2022-10-22T09:04:32.882Z,105.97
2022-10-22T09:07:13.281Z,93.18
2022-10-22T09:09:52.711Z,84.30
2022-10-22T09:12:28.994Z,70.65
2022-10-22T09:15:03.816Z,60.92
2022-10-22T09:17:52.294Z,56.38
2022-10-22T09:20:33.648Z,54.13
2022-10-22T09:23:23.745Z,50.35
2022-10-22T09:25:59.842Z,45.10
2022-10-22T09:28:34.350Z,40.45
2022-10-22T09:31:13.250Z,41.00
2022-10-22T09:33:51.769Z,35.92
2022-10-22T09:36:25.847Z,37.25
2022-10-22T09:39:00.854Z,35.05
2022-10-22T09:41:35.002Z,32.25
2022-10-22T09:44:09.100Z,32.28
2022-10-22T09:46:45.736Z,29.70
2022-10-22T09:49:24.190Z,30.13
2022-10-22T09:52:00.104Z,28.65
2022-10-22T09:54:41.348Z,29.08
2022-10-22T09:57:18.110Z,26.17
2022-10-22T09:59:54.120Z,25.77
2022-10-22T10:02:38.633Z,25.20
2022-10-22T10:05:21.630Z,22.95
2022-10-22T10:07:55.689Z,21.88
2022-10-22T10:10:36.551Z,20.95
2022-10-22T10:13:27.214Z,19.63
2022-10-22T10:16:12.167Z,20.08
2022-10-22T10:19:05.986Z,18.52
2022-10-22T10:21:50.730Z,19.35
2022-10-22T10:24:32.400Z,19.35
2022-10-22T10:27:11.228Z,18.48
2022-10-22T10:29:55.286Z,17.98
2022-10-22T10:35:22.424Z,17.00
2022-10-22T10:38:10.527Z,16.15
2022-10-22T10:40:49.811Z,16.73
2022-10-22T10:43:31.070Z,14.48
2022-10-22T10:49:00.715Z,18.88
2022-10-22T10:51:44.512Z,19.65
2022-10-22T10:54:36.774Z,18.45
2022-10-22T10:57:20.748Z,20.98
2022-10-22T11:00:06.738Z,19.33
2022-10-22T11:03:19.524Z,18.00
2022-10-22T11:05:59.464Z,19.25
2022-10-22T11:08:36.908Z,19.27
2022-10-22T11:11:18.160Z,24.00
2022-10-22T11:13:57.229Z,22.42
2022-10-22T11:16:37.043Z,20.70
2022-10-22T11:19:23.034Z,19.48
2022-10-22T11:22:14.770Z,19.05
2022-10-22T11:24:55.040Z,17.92
2022-10-22T11:27:37.245Z,18.40
2022-10-22T11:30:16.783Z,18.83
2022-10-22T11:32:54.561Z,19.30
2022-10-22T11:35:32.261Z,17.88
2022-10-22T11:38:09.861Z,16.58
2022-10-22T11:40:49.100Z,16.17
2022-10-22T11:43:33.085Z,15.65
2022-10-22T11:46:27.057Z,15.85
2022-10-22T11:49:17.728Z,16.02
2022-10-22T11:51:52.809Z,12.85
2022-10-22T11:54:42.925Z,14.40
2022-10-22T11:57:28.632Z,11.10
2022-10-22T12:00:12.264Z,12.27
2022-10-22T12:02:46.929Z,13.57
2022-10-22T12:05:38.013Z,18.50
2022-10-22T12:08:27.600Z,19.67
2022-10-22T12:11:23.031Z,16.25
2022-10-22T12:14:19.881Z,17.85
2022-10-22T12:16:57.943Z,18.10
2022-10-22T12:19:33.952Z,17.77
2022-10-22T12:22:16.701Z,18.33
2022-10-22T12:24:54.015Z,19.70
2022-10-22T12:27:30.679Z,16.17
2022-10-22T12:30:19.024Z,18.48
2022-10-22T12:32:56.818Z,16.33
2022-10-22T12:35:32.490Z,17.88
2022-10-22T12:38:15.254Z,16.85
2022-10-22T12:40:50.482Z,15.75
2022-10-22T12:43:28.025Z,13.95
2022-10-22T12:46:02.300Z,15.68
2022-10-22T12:48:42.754Z,14.60
2022-10-22T12:51:20.517Z,13.73
2022-10-22T12:53:56.548Z,13.88
2022-10-22T12:56:34.831Z,13.90
2022-10-22T12:59:17.951Z,13.63
2022-10-22T13:01:54.772Z,13.25
2022-10-22T13:04:39.244Z,14.48
2022-10-22T13:07:22.299Z,13.68
2022-10-22T13:10:00.723Z,13.70
2022-10-22T13:12:38.306Z,12.77
2022-10-22T13:15:24.772Z,14.10
2022-10-22T13:18:04.518Z,15.23
2022-10-22T13:20:52.324Z,14.77
2022-10-22T13:23:28.240Z,16.15
2022-10-22T13:26:04.937Z,14.25
2022-10-22T13:28:41.435Z,14.23
2022-10-22T13:31:19.239Z,15.35
2022-10-22T13:33:57.359Z,16.20
2022-10-22T13:36:32.954Z,17.33
2022-10-22T13:39:09.399Z,15.70
2022-10-22T13:41:43.555Z,16.35
2022-10-22T13:44:17.826Z,17.27
2022-10-22T13:46:53.081Z,16.42
2022-10-22T13:49:27.041Z,17.38
2022-10-22T13:52:02.477Z,17.52
2022-10-22T13:54:38.022Z,17.67
2022-10-22T13:57:12.408Z,17.98
2022-10-22T13:59:46.312Z,15.60
2022-10-22T14:04:54.327Z,17.77
2022-10-22T14:07:29.833Z,19.33
2022-10-22T14:10:03.928Z,16.90
2022-10-22T14:12:37.799Z,17.33
2022-10-22T14:15:14.412Z,19.40
2022-10-22T14:17:50.857Z,20.30
2022-10-22T14:20:27.827Z,22.13
2022-10-22T14:23:12.618Z,20.83
2022-10-22T14:25:46.728Z,20.13
2022-10-22T14:28:20.941Z,19.45
2022-10-22T14:30:55.245Z,20.63
2022-10-22T14:33:32.387Z,20.10
2022-10-22T14:36:06.821Z,19.00
2022-10-22T14:38:42.326Z,18.55
2022-10-22T14:41:21.418Z,20.13
2022-10-22T14:43:56.013Z,19.58
2022-10-22T14:46:29.906Z,19.08
2022-10-22T14:49:04.254Z,20.73
2022-10-22T14:51:38.045Z,20.45
2022-10-22T14:56:46.915Z,18.73
2022-10-22T15:01:54.382Z,20.50
2022-10-22T15:04:28.602Z,21.23
2022-10-22T15:07:02.436Z,18.23
2022-10-22T15:12:11.352Z,20.27
2022-10-22T15:14:45.241Z,16.58
2022-10-22T15:17:20.043Z,18.67
2022-10-22T15:19:56.342Z,16.42
2022-10-22T15:22:31.724Z,17.70
2022-10-22T15:25:09.305Z,17.02
2022-10-22T15:27:45.493Z,17.67
2022-10-22T15:30:21.498Z,16.63
2022-10-22T15:32:55.310Z,18.20
2022-10-22T15:38:02.756Z,17.70
2022-10-22T15:43:12.272Z,17.58
2022-10-22T15:45:46.549Z,18.67
2022-10-22T15:48:20.370Z,17.50
2022-10-22T15:50:54.414Z,20.33
2022-10-22T15:53:28.307Z,20.08
2022-10-22T15:56:03.702Z,20.42
2022-10-22T15:58:37.685Z,18.13
2022-10-22T16:01:13.794Z,18.80
2022-10-22T16:03:47.878Z,18.90
2022-10-22T16:06:21.903Z,19.73
2022-10-22T16:08:55.945Z,20.77
2022-10-22T16:11:31.508Z,22.50
2022-10-22T16:14:06.381Z,21.83
2022-10-22T16:16:43.226Z,21.50
2022-10-22T16:19:19.349Z,18.67
2022-10-22T16:21:55.529Z,20.65
2022-10-22T16:24:29.363Z,19.35
2022-10-22T16:29:39.439Z,19.95
2022-10-22T16:32:13.473Z,21.38
2022-10-22T16:34:47.281Z,20.98
2022-10-22T16:39:54.679Z,20.73
2022-10-22T16:42:30.907Z,21.55
2022-10-22T16:45:05.249Z,22.95
2022-10-22T16:47:39.780Z,24.23
2022-10-22T16:50:13.913Z,22.52
2022-10-22T16:52:47.723Z,21.45
2022-10-22T16:57:56.606Z,22.40
2022-10-22T17:00:30.809Z,23.17
2022-10-22T17:03:04.990Z,22.85
2022-10-22T17:05:38.852Z,21.77
2022-10-22T17:10:46.326Z,20.40
2022-10-22T17:13:21.709Z,19.63
2022-10-22T17:16:03.186Z,20.95
2022-10-22T17:18:39.096Z,18.77
2022-10-22T17:21:13.849Z,19.75
2022-10-22T17:23:48.528Z,19.10
2022-10-22T17:26:23.547Z,18.08
2022-10-22T17:28:59.278Z,17.33
2022-10-22T17:31:37.371Z,16.65
2022-10-22T17:34:17.208Z,17.33
2022-10-22T17:36:50.986Z,16.55
2022-10-22T17:41:58.273Z,15.88
2022-10-22T17:47:07.280Z,15.50
2022-10-22T17:52:15.127Z,14.13
2022-10-22T17:54:50.173Z,14.73
2022-10-22T17:57:24.028Z,14.55
2022-10-22T18:02:33.272Z,13.35
2022-10-22T18:05:07.943Z,13.18
2022-10-22T18:07:41.735Z,12.10
2022-10-22T18:12:49.322Z,13.02
2022-10-22T18:15:25.920Z,12.52
2022-10-22T18:17:59.757Z,11.13
2022-10-22T18:23:07.636Z,11.00
2022-10-22T18:25:41.523Z,11.43
2022-10-22T18:28:16.045Z,10.68
2022-10-22T18:30:52.149Z,10.18
2022-10-22T18:33:26.033Z,10.10
2022-10-22T18:36:05.442Z,11.13
2022-10-22T18:38:39.628Z,9.73
2022-10-22T18:41:15.345Z,10.45
2022-10-22T18:43:52.085Z,9.65
2022-10-22T18:46:27.899Z,9.60
2022-10-22T18:49:02.602Z,9.88
2022-10-22T18:51:37.546Z,8.63
2022-10-22T18:54:22.549Z,9.82
2022-10-22T18:57:02.598Z,10.20
2022-10-22T18:59:37.095Z,9.23
2022-10-22T19:02:12.673Z,9.35
2022-10-22T19:04:46.816Z,8.35
2022-10-22T19:07:20.650Z,9.15
2022-10-22T19:12:28.108Z,12.27
2022-10-22T19:15:01.995Z,12.15
2022-10-22T19:17:37.566Z,12.30
2022-10-22T19:20:12.281Z,11.48
2022-10-22T19:22:46.161Z,11.85
2022-10-22T19:25:20.242Z,12.25
2022-10-22T19:27:54.289Z,12.73
2022-10-22T19:30:28.287Z,12.63
2022-10-22T19:33:03.634Z,11.82
2022-10-22T19:35:38.318Z,11.25
2022-10-22T19:38:12.248Z,11.43
2022-10-22T19:40:46.289Z,10.55
2022-10-22T19:43:20.383Z,11.75
2022-10-22T19:45:54.343Z,10.60
2022-10-22T19:48:29.994Z,11.20
2022-10-22T19:51:05.759Z,12.07
2022-10-22T19:53:41.250Z,9.60
2022-10-22T19:56:19.304Z,10.02
2022-10-22T19:58:53.131Z,9.90
2022-10-22T20:04:02.425Z,9.88
2022-10-22T20:06:36.254Z,9.30
